EGKKTBPB

Guest
Details From EGKK - London Gatwick
To TBPB - Barbados - Grantley Adams Intl
Flight Number -
Tags Decoded
Created
Modified
Stats Distance 3,651 nm / 6,762 km
Max Altitude 0 ft / 0 m
Waypoints 5
Social Downloads 4
Likes 0
Share VATSIM

Download

Looking for another format? Having issues loading an existing format? Contact us
Advertisement - Login to hide

Notes

Decoded

Route

EGKK SAM GAPLI OMOKO BGI

ID Type Via Altitude Latitude Longitude Leg Dist Tot Dist Heading (true) Name
O EGKK APT - 0 ft / 0 m 51.14691˚ -0.21257˚ - 0 nm - -
SAM VOR - 0 ft / 0 m 50.95528˚ -1.34500˚ 44 nm 44 nm 255° / 254° SOUTHAMPTON VOR-DME
GAPLI FIX - 0 ft / 0 m 50.00000˚ -8.00000˚ 260 nm 304 nm 260° / 255° -
OMOKO FIX - 0 ft / 0 m 48.83889˚ -12.00000˚ 171 nm 476 nm 247° / 244° -
O BGI VOR - 0 ft / 0 m 13.07506˚ -59.48383˚ 3175 nm 3651 nm 244° / 217° ADAMS VOR-DME

Altitude Profile

Advertisement - Login to hide

Weather


0- 5 10 15 20 25 30 35+ Temperature / ° C

Clouds and Precipitation
Forecast for 2018-05-24 18:00 UTC. Updated 3 hours ago

Ground ~20,000 ft ~40,000 ft Winds

EGKK

Details ICAO EGKK (LGW)
Name London Gatwick
Region United Kingdom
Timezone Europe/London (UTC+1.0)
Stats Elevation 196 ft / 60 m (AMSL)
Location 51.148753° -0.192472°
Runways 2
Magnetic Variation 0.368° W

METAR

EGKK 242020Z VRB05KT 3500 -RA NSC 15/14 Q1017

Decode

TAF

TAF TAF EGKK 241703Z 2418/2524 02008KT 7000 BKN045 TEMPO 2418/2522 SHRA PROB40 TEMPO 2418/2420 4000 +SHRA BKN014 BKN030CB BECMG 2500/2503 BKN008 PROB30 2500/2508 3000 BR BKN004 BECMG 2508/2511 9999 SCT025

Decode

Departure Runways

ID Width Length Bearing (true) Bearing (mag) Surface Threshold Offset Overrun Length
08L 148 ft / 45 m 8,377 ft / 2,553 m 77.69° 78.06° Asphalt 1,053 ft / 321 m 0 ft / 0 m
08R 148 ft / 45 m 10,341 ft / 3,152 m 77.59° 77.96° Asphalt 1,289 ft / 393 m 0 ft / 0 m
26L 148 ft / 45 m 10,341 ft / 3,152 m 257.63° 258.00° Asphalt 879 ft / 268 m 600 ft / 183 m
26R 148 ft / 45 m 8,377 ft / 2,553 m 257.71° 258.08° Asphalt 1,365 ft / 416 m 0 ft / 0 m

TBPB

Details ICAO TBPB (BGI)
Name Barbados/Grantley Adams Intl
Region Barbados
Timezone America/Barbados (UTC-4.0)
Stats Elevation 168 ft / 51 m (AMSL)
Location 13.074614° -59.492206°
Runways 1
Magnetic Variation 15.625° W

METAR

TBPB 242000Z 09016KT 9999 SCT020 28/22 Q1014 NOSIG

Decode

TAF

Not found

Destination Runways

ID Width Length Bearing (true) Bearing (mag) Surface Threshold Offset Overrun Length
09 148 ft / 45 m 11,924 ft / 3,635 m 75.84° 91.46° Asphalt 0 ft / 0 m 174 ft / 53 m
27 148 ft / 45 m 11,924 ft / 3,635 m 255.85° 271.47° Asphalt 0 ft / 0 m 0 ft / 0 m

Approach Navaids

Runway Type Ident Frequency Range Bearing (true) Bearing (mag) Slope Elevation
09 Localiser IBGI 110.10 MHz 18 nm / 33 km 75.97° 91.60° - 168 ft / 51 m (AMSL)
09 Glidescope IBGI 110.10 MHz 10 nm / 19 km 75.85° 91.47° 3.00° 168 ft / 51 m (AMSL)

Popular Alternatives